sensor_id;sensor_type;location;lat;lon;timestamp;temperature;humidity
66722;SHT31;53633;49.932;10.884;2023-02-01T00:00:17;4.75;90.17
66722;SHT31;53633;49.932;10.884;2023-02-01T00:02:45;4.68;90.06
66722;SHT31;53633;49.932;10.884;2023-02-01T00:05:11;4.69;90.37
66722;SHT31;53633;49.932;10.884;2023-02-01T00:07:38;4.69;90.31
66722;SHT31;53633;49.932;10.884;2023-02-01T00:10:06;4.66;90.41
66722;SHT31;53633;49.932;10.884;2023-02-01T00:12:33;4.62;90.59
66722;SHT31;53633;49.932;10.884;2023-02-01T00:15:02;4.73;90.34
66722;SHT31;53633;49.932;10.884;2023-02-01T00:17:28;4.71;90.33
66722;SHT31;53633;49.932;10.884;2023-02-01T00:19:55;4.66;90.50
66722;SHT31;53633;49.932;10.884;2023-02-01T00:22:22;4.68;90.48
66722;SHT31;53633;49.932;10.884;2023-02-01T00:24:49;4.66;90.36
66722;SHT31;53633;49.932;10.884;2023-02-01T00:27:17;4.71;90.39
66722;SHT31;53633;49.932;10.884;2023-02-01T00:29:44;4.69;90.56
66722;SHT31;53633;49.932;10.884;2023-02-01T00:32:12;4.72;90.44
66722;SHT31;53633;49.932;10.884;2023-02-01T00:34:39;4.76;90.23
66722;SHT31;53633;49.932;10.884;2023-02-01T00:37:06;4.75;90.29
66722;SHT31;53633;49.932;10.884;2023-02-01T00:39:33;4.68;90.47
66722;SHT31;53633;49.932;10.884;2023-02-01T00:42:00;4.75;90.26
66722;SHT31;53633;49.932;10.884;2023-02-01T00:44:27;4.76;90.27
66722;SHT31;53633;49.932;10.884;2023-02-01T00:46:54;4.76;90.43
66722;SHT31;53633;49.932;10.884;2023-02-01T00:49:22;4.79;90.36
66722;SHT31;53633;49.932;10.884;2023-02-01T00:51:48;4.80;90.54
66722;SHT31;53633;49.932;10.884;2023-02-01T00:54:15;4.80;90.64
66722;SHT31;53633;49.932;10.884;2023-02-01T00:56:42;4.75;91.06
66722;SHT31;53633;49.932;10.884;2023-02-01T00:59:10;4.73;91.27
66722;SHT31;53633;49.932;10.884;2023-02-01T01:01:37;4.72;91.19
66722;SHT31;53633;49.932;10.884;2023-02-01T01:04:04;4.76;91.23
66722;SHT31;53633;49.932;10.884;2023-02-01T01:06:33;4.75;91.36
66722;SHT31;53633;49.932;10.884;2023-02-01T01:09:02;4.69;91.82
66722;SHT31;53633;49.932;10.884;2023-02-01T01:11:32;4.68;92.03
66722;SHT31;53633;49.932;10.884;2023-02-01T01:13:59;4.73;91.83
66722;SHT31;53633;49.932;10.884;2023-02-01T01:16:28;4.76;91.73
66722;SHT31;53633;49.932;10.884;2023-02-01T01:18:56;4.79;91.51
66722;SHT31;53633;49.932;10.884;2023-02-01T01:21:24;4.75;91.66
66722;SHT31;53633;49.932;10.884;2023-02-01T01:23:52;4.80;91.41
66722;SHT31;53633;49.932;10.884;2023-02-01T01:26:21;4.83;91.21
66722;SHT31;53633;49.932;10.884;2023-02-01T01:28:48;4.79;91.58
66722;SHT31;53633;49.932;10.884;2023-02-01T01:31:16;4.76;91.65
66722;SHT31;53633;49.932;10.884;2023-02-01T01:33:44;4.79;91.61
66722;SHT31;53633;49.932;10.884;2023-02-01T01:36:12;4.80;91.84
66722;SHT31;53633;49.932;10.884;2023-02-01T01:38:39;4.77;92.00
66722;SHT31;53633;49.932;10.884;2023-02-01T01:41:08;4.75;92.17
66722;SHT31;53633;49.932;10.884;2023-02-01T01:43:49;4.75;92.07
66722;SHT31;53633;49.932;10.884;2023-02-01T01:46:17;4.75;91.36
66722;SHT31;53633;49.932;10.884;2023-02-01T01:48:45;4.69;91.62
66722;SHT31;53633;49.932;10.884;2023-02-01T01:51:13;4.66;91.77
66722;SHT31;53633;49.932;10.884;2023-02-01T01:53:43;4.69;91.92
66722;SHT31;53633;49.932;10.884;2023-02-01T01:56:12;4.66;92.53
66722;SHT31;53633;49.932;10.884;2023-02-01T01:58:40;4.58;91.45
66722;SHT31;53633;49.932;10.884;2023-02-01T02:01:07;4.51;91.37
66722;SHT31;53633;49.932;10.884;2023-02-01T02:03:39;4.44;91.24
66722;SHT31;53633;49.932;10.884;2023-02-01T02:06:12;4.40;91.58
66722;SHT31;53633;49.932;10.884;2023-02-01T02:08:41;4.38;91.64
66722;SHT31;53633;49.932;10.884;2023-02-01T02:11:11;4.34;91.84
66722;SHT31;53633;49.932;10.884;2023-02-01T02:13:40;4.33;92.10
66722;SHT31;53633;49.932;10.884;2023-02-01T02:16:39;4.25;92.25
66722;SHT31;53633;49.932;10.884;2023-02-01T02:19:32;4.33;92.05
66722;SHT31;53633;49.932;10.884;2023-02-01T02:25:14;4.14;92.85
66722;SHT31;53633;49.932;10.884;2023-02-01T02:27:51;4.06;93.16
66722;SHT31;53633;49.932;10.884;2023-02-01T02:30:40;4.04;93.45
66722;SHT31;53633;49.932;10.884;2023-02-01T02:36:17;4.08;93.58
66722;SHT31;53633;49.932;10.884;2023-02-01T02:38:52;4.10;93.57
66722;SHT31;53633;49.932;10.884;2023-02-01T02:41:26;4.17;93.67
66722;SHT31;53633;49.932;10.884;2023-02-01T02:43:56;4.27;93.51
66722;SHT31;53633;49.932;10.884;2023-02-01T02:46:26;4.30;93.40
66722;SHT31;53633;49.932;10.884;2023-02-01T02:49:01;4.25;93.62
66722;SHT31;53633;49.932;10.884;2023-02-01T02:51:35;4.38;93.57
66722;SHT31;53633;49.932;10.884;2023-02-01T02:54:07;4.42;93.35
66722;SHT31;53633;49.932;10.884;2023-02-01T02:56:35;4.38;93.59
66722;SHT31;53633;49.932;10.884;2023-02-01T02:59:03;4.38;93.68
66722;SHT31;53633;49.932;10.884;2023-02-01T03:01:31;4.46;93.38
66722;SHT31;53633;49.932;10.884;2023-02-01T03:03:58;4.48;93.49
66722;SHT31;53633;49.932;10.884;2023-02-01T03:06:25;4.54;93.29
66722;SHT31;53633;49.932;10.884;2023-02-01T03:08:54;4.54;93.07
66722;SHT31;53633;49.932;10.884;2023-02-01T03:11:24;4.48;93.26
66722;SHT31;53633;49.932;10.884;2023-02-01T03:13:52;4.45;93.39
66722;SHT31;53633;49.932;10.884;2023-02-01T03:16:23;4.55;93.00
66722;SHT31;53633;49.932;10.884;2023-02-01T03:18:53;4.51;93.05
66722;SHT31;53633;49.932;10.884;2023-02-01T03:21:24;4.52;93.17
66722;SHT31;53633;49.932;10.884;2023-02-01T03:23:53;4.61;92.67
66722;SHT31;53633;49.932;10.884;2023-02-01T03:26:24;4.66;92.45
66722;SHT31;53633;49.932;10.884;2023-02-01T03:28:57;4.59;92.79
66722;SHT31;53633;49.932;10.884;2023-02-01T03:31:27;4.65;92.67
66722;SHT31;53633;49.932;10.884;2023-02-01T03:33:54;4.65;92.56
66722;SHT31;53633;49.932;10.884;2023-02-01T03:36:25;4.69;92.24
66722;SHT31;53633;49.932;10.884;2023-02-01T03:39:00;4.75;92.07
66722;SHT31;53633;49.932;10.884;2023-02-01T03:41:35;4.76;92.05
66722;SHT31;53633;49.932;10.884;2023-02-01T03:44:08;4.68;92.29
66722;SHT31;53633;49.932;10.884;2023-02-01T03:46:41;4.66;92.29
66722;SHT31;53633;49.932;10.884;2023-02-01T03:49:15;4.65;92.32
66722;SHT31;53633;49.932;10.884;2023-02-01T03:51:43;4.72;92.20
66722;SHT31;53633;49.932;10.884;2023-02-01T03:54:13;4.65;92.23
66722;SHT31;53633;49.932;10.884;2023-02-01T03:56:44;4.66;92.24
66722;SHT31;53633;49.932;10.884;2023-02-01T03:59:12;4.69;91.89
66722;SHT31;53633;49.932;10.884;2023-02-01T04:01:39;4.73;91.89
66722;SHT31;53633;49.932;10.884;2023-02-01T04:04:07;4.71;91.86
66722;SHT31;53633;49.932;10.884;2023-02-01T04:06:33;4.76;91.79
66722;SHT31;53633;49.932;10.884;2023-02-01T04:09:00;4.76;91.67
66722;SHT31;53633;49.932;10.884;2023-02-01T04:11:28;4.80;91.53
66722;SHT31;53633;49.932;10.884;2023-02-01T04:13:55;4.76;91.52
66722;SHT31;53633;49.932;10.884;2023-02-01T04:16:22;4.83;91.35
66722;SHT31;53633;49.932;10.884;2023-02-01T04:18:49;4.79;91.53
66722;SHT31;53633;49.932;10.884;2023-02-01T04:21:15;4.72;91.98
66722;SHT31;53633;49.932;10.884;2023-02-01T04:23:42;4.77;91.76
66722;SHT31;53633;49.932;10.884;2023-02-01T04:26:09;4.79;91.79
66722;SHT31;53633;49.932;10.884;2023-02-01T04:28:37;4.80;92.07
66722;SHT31;53633;49.932;10.884;2023-02-01T04:31:04;4.75;92.35
66722;SHT31;53633;49.932;10.884;2023-02-01T04:33:31;4.71;92.37
66722;SHT31;53633;49.932;10.884;2023-02-01T04:35:57;4.71;92.21
66722;SHT31;53633;49.932;10.884;2023-02-01T04:38:24;4.66;92.27
66722;SHT31;53633;49.932;10.884;2023-02-01T04:40:51;4.56;92.30
66722;SHT31;53633;49.932;10.884;2023-02-01T04:43:18;4.59;92.27
66722;SHT31;53633;49.932;10.884;2023-02-01T04:45:49;4.61;92.26
66722;SHT31;53633;49.932;10.884;2023-02-01T04:48:17;4.58;92.37
66722;SHT31;53633;49.932;10.884;2023-02-01T04:50:45;4.63;92.12
66722;SHT31;53633;49.932;10.884;2023-02-01T04:53:12;4.54;92.39
66722;SHT31;53633;49.932;10.884;2023-02-01T04:55:38;4.49;92.57
66722;SHT31;53633;49.932;10.884;2023-02-01T04:58:05;4.52;92.51
66722;SHT31;53633;49.932;10.884;2023-02-01T05:00:32;4.54;92.44
66722;SHT31;53633;49.932;10.884;2023-02-01T05:03:00;4.62;92.11
66722;SHT31;53633;49.932;10.884;2023-02-01T05:05:27;4.62;92.12
66722;SHT31;53633;49.932;10.884;2023-02-01T05:07:54;4.63;92.17
66722;SHT31;53633;49.932;10.884;2023-02-01T05:10:22;4.65;91.96
66722;SHT31;53633;49.932;10.884;2023-02-01T05:12:49;4.72;91.80
66722;SHT31;53633;49.932;10.884;2023-02-01T05:15:16;4.59;92.05
66722;SHT31;53633;49.932;10.884;2023-02-01T05:17:42;4.55;92.28
66722;SHT31;53633;49.932;10.884;2023-02-01T05:20:11;4.66;91.94
66722;SHT31;53633;49.932;10.884;2023-02-01T05:22:37;4.68;91.74
66722;SHT31;53633;49.932;10.884;2023-02-01T05:25:05;4.62;91.76
66722;SHT31;53633;49.932;10.884;2023-02-01T05:27:34;4.56;91.73
66722;SHT31;53633;49.932;10.884;2023-02-01T05:30:01;4.54;91.94
66722;SHT31;53633;49.932;10.884;2023-02-01T05:32:27;4.54;91.99
66722;SHT31;53633;49.932;10.884;2023-02-01T05:34:54;4.48;91.44
66722;SHT31;53633;49.932;10.884;2023-02-01T05:37:22;4.40;91.74
66722;SHT31;53633;49.932;10.884;2023-02-01T05:39:49;4.41;91.44
66722;SHT31;53633;49.932;10.884;2023-02-01T05:42:16;4.45;91.17
66722;SHT31;53633;49.932;10.884;2023-02-01T05:44:42;4.37;91.39
66722;SHT31;53633;49.932;10.884;2023-02-01T05:47:09;4.35;91.38
66722;SHT31;53633;49.932;10.884;2023-02-01T05:49:36;4.31;91.44
66722;SHT31;53633;49.932;10.884;2023-02-01T05:52:03;4.37;91.09
66722;SHT31;53633;49.932;10.884;2023-02-01T05:54:31;4.34;91.15
66722;SHT31;53633;49.932;10.884;2023-02-01T05:56:58;4.34;90.93
66722;SHT31;53633;49.932;10.884;2023-02-01T05:59:24;4.38;91.00
66722;SHT31;53633;49.932;10.884;2023-02-01T06:01:51;4.42;90.57
66722;SHT31;53633;49.932;10.884;2023-02-01T06:04:18;4.48;90.85
66722;SHT31;53633;49.932;10.884;2023-02-01T06:06:44;4.38;90.84
66722;SHT31;53633;49.932;10.884;2023-02-01T06:09:11;4.41;90.90
66722;SHT31;53633;49.932;10.884;2023-02-01T06:11:40;4.51;90.41
66722;SHT31;53633;49.932;10.884;2023-02-01T06:14:07;4.48;90.19
66722;SHT31;53633;49.932;10.884;2023-02-01T06:16:33;4.45;90.42
66722;SHT31;53633;49.932;10.884;2023-02-01T06:19:00;4.46;90.25
66722;SHT31;53633;49.932;10.884;2023-02-01T06:21:27;4.35;90.64
66722;SHT31;53633;49.932;10.884;2023-02-01T06:23:54;4.44;90.52
66722;SHT31;53633;49.932;10.884;2023-02-01T06:26:20;4.48;90.14
66722;SHT31;53633;49.932;10.884;2023-02-01T06:28:48;4.44;89.98
66722;SHT31;53633;49.932;10.884;2023-02-01T06:31:15;4.40;90.09
66722;SHT31;53633;49.932;10.884;2023-02-01T06:33:42;4.27;90.15
66722;SHT31;53633;49.932;10.884;2023-02-01T06:36:10;4.33;89.89
66722;SHT31;53633;49.932;10.884;2023-02-01T06:38:37;4.31;89.83
66722;SHT31;53633;49.932;10.884;2023-02-01T06:41:04;4.22;90.16
66722;SHT31;53633;49.932;10.884;2023-02-01T06:43:31;4.24;90.10
66722;SHT31;53633;49.932;10.884;2023-02-01T06:46:01;4.20;90.22
66722;SHT31;53633;49.932;10.884;2023-02-01T06:48:28;4.13;90.21
66722;SHT31;53633;49.932;10.884;2023-02-01T06:50:55;4.04;90.71
66722;SHT31;53633;49.932;10.884;2023-02-01T06:53:22;4.10;90.70
66722;SHT31;53633;49.932;10.884;2023-02-01T06:55:52;4.18;90.42
66722;SHT31;53633;49.932;10.884;2023-02-01T06:58:19;4.22;90.30
66722;SHT31;53633;49.932;10.884;2023-02-01T07:00:46;4.18;90.23
66722;SHT31;53633;49.932;10.884;2023-02-01T07:03:14;4.21;90.10
66722;SHT31;53633;49.932;10.884;2023-02-01T07:05:41;4.18;90.09
66722;SHT31;53633;49.932;10.884;2023-02-01T07:08:07;4.10;90.13
66722;SHT31;53633;49.932;10.884;2023-02-01T07:10:34;4.08;90.01
66722;SHT31;53633;49.932;10.884;2023-02-01T07:13:01;4.07;90.08
66722;SHT31;53633;49.932;10.884;2023-02-01T07:15:28;4.03;90.29
66722;SHT31;53633;49.932;10.884;2023-02-01T07:17:55;4.01;89.87
66722;SHT31;53633;49.932;10.884;2023-02-01T07:20:23;4.10;89.64
66722;SHT31;53633;49.932;10.884;2023-02-01T07:22:54;4.00;89.90
66722;SHT31;53633;49.932;10.884;2023-02-01T07:25:21;3.93;90.11
66722;SHT31;53633;49.932;10.884;2023-02-01T07:27:48;3.87;90.33
66722;SHT31;53633;49.932;10.884;2023-02-01T07:30:15;4.07;89.47
66722;SHT31;53633;49.932;10.884;2023-02-01T07:32:42;4.18;89.51
66722;SHT31;53633;49.932;10.884;2023-02-01T07:35:09;4.30;88.83
66722;SHT31;53633;49.932;10.884;2023-02-01T07:37:37;4.24;89.13
66722;SHT31;53633;49.932;10.884;2023-02-01T07:40:04;4.33;89.18
66722;SHT31;53633;49.932;10.884;2023-02-01T07:42:31;4.34;89.04
66722;SHT31;53633;49.932;10.884;2023-02-01T07:44:58;4.22;89.39
66722;SHT31;53633;49.932;10.884;2023-02-01T07:47:40;4.22;89.46
66722;SHT31;53633;49.932;10.884;2023-02-01T07:50:08;4.25;89.45
66722;SHT31;53633;49.932;10.884;2023-02-01T07:52:34;4.28;89.48
66722;SHT31;53633;49.932;10.884;2023-02-01T07:55:03;4.20;89.79
66722;SHT31;53633;49.932;10.884;2023-02-01T07:57:30;4.33;89.65
66722;SHT31;53633;49.932;10.884;2023-02-01T07:59:56;4.92;88.49
66722;SHT31;53633;49.932;10.884;2023-02-01T08:02:23;5.79;84.65
66722;SHT31;53633;49.932;10.884;2023-02-01T08:04:50;6.21;83.32
66722;SHT31;53633;49.932;10.884;2023-02-01T08:07:17;7.27;79.88
66722;SHT31;53633;49.932;10.884;2023-02-01T08:09:43;8.02;77.01
66722;SHT31;53633;49.932;10.884;2023-02-01T08:12:11;8.95;74.09
66722;SHT31;53633;49.932;10.884;2023-02-01T08:14:38;9.23;71.95
66722;SHT31;53633;49.932;10.884;2023-02-01T08:17:05;9.72;70.84
66722;SHT31;53633;49.932;10.884;2023-02-01T08:19:32;10.06;69.70
66722;SHT31;53633;49.932;10.884;2023-02-01T08:21:58;10.69;67.66
66722;SHT31;53633;49.932;10.884;2023-02-01T08:24:25;11.01;66.16
66722;SHT31;53633;49.932;10.884;2023-02-01T08:26:52;10.96;66.30
66722;SHT31;53633;49.932;10.884;2023-02-01T08:29:20;10.50;65.96
66722;SHT31;53633;49.932;10.884;2023-02-01T08:31:46;10.78;66.58
66722;SHT31;53633;49.932;10.884;2023-02-01T08:34:13;10.68;65.65
66722;SHT31;53633;49.932;10.884;2023-02-01T08:36:40;11.09;64.60
66722;SHT31;53633;49.932;10.884;2023-02-01T08:39:08;9.71;67.08
66722;SHT31;53633;49.932;10.884;2023-02-01T08:41:34;10.43;67.06
66722;SHT31;53633;49.932;10.884;2023-02-01T08:44:01;11.23;64.22
66722;SHT31;53633;49.932;10.884;2023-02-01T08:46:29;11.19;63.72
66722;SHT31;53633;49.932;10.884;2023-02-01T08:48:56;11.06;63.88
66722;SHT31;53633;49.932;10.884;2023-02-01T08:51:23;11.78;62.19
66722;SHT31;53633;49.932;10.884;2023-02-01T08:53:50;11.18;62.80
66722;SHT31;53633;49.932;10.884;2023-02-01T08:56:18;11.26;63.08
66722;SHT31;53633;49.932;10.884;2023-02-01T08:58:45;11.32;63.75
66722;SHT31;53633;49.932;10.884;2023-02-01T09:01:14;11.33;63.06
66722;SHT31;53633;49.932;10.884;2023-02-01T09:03:42;11.49;63.15
66722;SHT31;53633;49.932;10.884;2023-02-01T09:06:11;11.32;62.83
66722;SHT31;53633;49.932;10.884;2023-02-01T09:08:38;9.72;67.62
66722;SHT31;53633;49.932;10.884;2023-02-01T09:11:08;8.51;70.59
66722;SHT31;53633;49.932;10.884;2023-02-01T09:13:35;7.93;73.88
66722;SHT31;53633;49.932;10.884;2023-02-01T09:16:02;7.78;75.01
66722;SHT31;53633;49.932;10.884;2023-02-01T09:18:28;7.47;75.94
66722;SHT31;53633;49.932;10.884;2023-02-01T09:20:57;7.16;76.66
66722;SHT31;53633;49.932;10.884;2023-02-01T09:23:23;7.00;77.26
66722;SHT31;53633;49.932;10.884;2023-02-01T09:25:50;6.82;77.18
66722;SHT31;53633;49.932;10.884;2023-02-01T09:28:17;6.78;77.82
66722;SHT31;53633;49.932;10.884;2023-02-01T09:30:44;6.55;78.13
66722;SHT31;53633;49.932;10.884;2023-02-01T09:33:11;6.54;78.29
66722;SHT31;53633;49.932;10.884;2023-02-01T09:35:37;6.48;78.52
66722;SHT31;53633;49.932;10.884;2023-02-01T09:38:05;6.44;78.46
66722;SHT31;53633;49.932;10.884;2023-02-01T09:40:34;6.42;78.51
66722;SHT31;53633;49.932;10.884;2023-02-01T09:43:21;6.33;78.98
66722;SHT31;53633;49.932;10.884;2023-02-01T09:45:59;6.31;79.00
66722;SHT31;53633;49.932;10.884;2023-02-01T09:48:29;6.27;79.44
66722;SHT31;53633;49.932;10.884;2023-02-01T09:50:59;6.17;79.35
66722;SHT31;53633;49.932;10.884;2023-02-01T09:53:33;6.18;78.87
66722;SHT31;53633;49.932;10.884;2023-02-01T09:56:05;6.13;79.13
66722;SHT31;53633;49.932;10.884;2023-02-01T09:58:36;6.14;79.85
66722;SHT31;53633;49.932;10.884;2023-02-01T10:01:09;6.02;79.57
66722;SHT31;53633;49.932;10.884;2023-02-01T10:03:37;5.97;80.10
66722;SHT31;53633;49.932;10.884;2023-02-01T10:06:24;5.95;80.54
66722;SHT31;53633;49.932;10.884;2023-02-01T10:09:11;5.86;81.34
66722;SHT31;53633;49.932;10.884;2023-02-01T10:11:50;5.82;82.18
66722;SHT31;53633;49.932;10.884;2023-02-01T10:14:32;5.85;81.67
66722;SHT31;53633;49.932;10.884;2023-02-01T10:17:06;5.89;81.25
66722;SHT31;53633;49.932;10.884;2023-02-01T10:19:43;6.02;81.46
66722;SHT31;53633;49.932;10.884;2023-02-01T10:22:21;6.06;80.85
66722;SHT31;53633;49.932;10.884;2023-02-01T10:25:17;5.97;81.09
66722;SHT31;53633;49.932;10.884;2023-02-01T10:27:46;5.97;80.95
66722;SHT31;53633;49.932;10.884;2023-02-01T10:30:19;6.00;81.00
66722;SHT31;53633;49.932;10.884;2023-02-01T10:32:49;6.04;80.96
66722;SHT31;53633;49.932;10.884;2023-02-01T10:35:22;6.00;81.09
66722;SHT31;53633;49.932;10.884;2023-02-01T10:37:50;6.14;81.59
66722;SHT31;53633;49.932;10.884;2023-02-01T10:40:20;6.03;80.69
66722;SHT31;53633;49.932;10.884;2023-02-01T10:42:49;6.07;80.53
66722;SHT31;53633;49.932;10.884;2023-02-01T10:45:18;6.03;80.44
66722;SHT31;53633;49.932;10.884;2023-02-01T10:47:46;6.06;80.85
66722;SHT31;53633;49.932;10.884;2023-02-01T10:50:20;6.17;80.37
66722;SHT31;53633;49.932;10.884;2023-02-01T10:52:54;6.20;80.59
66722;SHT31;53633;49.932;10.884;2023-02-01T10:55:35;6.30;80.63
66722;SHT31;53633;49.932;10.884;2023-02-01T10:58:07;6.24;80.45
66722;SHT31;53633;49.932;10.884;2023-02-01T11:00:46;6.20;80.18
66722;SHT31;53633;49.932;10.884;2023-02-01T11:03:21;6.11;80.08
66722;SHT31;53633;49.932;10.884;2023-02-01T11:05:55;6.18;79.96
66722;SHT31;53633;49.932;10.884;2023-02-01T11:08:22;6.28;80.11
66722;SHT31;53633;49.932;10.884;2023-02-01T11:10:57;6.23;80.04
66722;SHT31;53633;49.932;10.884;2023-02-01T11:13:29;6.28;79.79
66722;SHT31;53633;49.932;10.884;2023-02-01T11:15:56;6.30;80.05
66722;SHT31;53633;49.932;10.884;2023-02-01T11:18:26;6.23;79.80
66722;SHT31;53633;49.932;10.884;2023-02-01T11:20:53;6.16;80.11
66722;SHT31;53633;49.932;10.884;2023-02-01T11:23:23;6.21;80.41
66722;SHT31;53633;49.932;10.884;2023-02-01T11:25:53;6.17;80.61
66722;SHT31;53633;49.932;10.884;2023-02-01T11:28:22;6.07;80.94
66722;SHT31;53633;49.932;10.884;2023-02-01T11:30:51;6.03;80.91
66722;SHT31;53633;49.932;10.884;2023-02-01T11:33:23;6.07;81.01
66722;SHT31;53633;49.932;10.884;2023-02-01T11:35:51;6.14;80.75
66722;SHT31;53633;49.932;10.884;2023-02-01T11:38:21;6.20;80.36
66722;SHT31;53633;49.932;10.884;2023-02-01T11:40:48;6.16;80.31
66722;SHT31;53633;49.932;10.884;2023-02-01T11:43:23;6.07;80.42
66722;SHT31;53633;49.932;10.884;2023-02-01T11:45:55;6.20;80.23
66722;SHT31;53633;49.932;10.884;2023-02-01T11:48:23;6.18;80.25
66722;SHT31;53633;49.932;10.884;2023-02-01T11:51:00;6.24;79.64
66722;SHT31;53633;49.932;10.884;2023-02-01T11:53:55;6.21;79.50
66722;SHT31;53633;49.932;10.884;2023-02-01T11:56:32;6.28;78.97
66722;SHT31;53633;49.932;10.884;2023-02-01T11:59:27;6.37;78.82
66722;SHT31;53633;49.932;10.884;2023-02-01T12:02:19;6.28;78.12
66722;SHT31;53633;49.932;10.884;2023-02-01T12:05:07;6.27;78.40
66722;SHT31;53633;49.932;10.884;2023-02-01T12:07:49;6.27;78.72
66722;SHT31;53633;49.932;10.884;2023-02-01T12:10:26;6.24;78.49
66722;SHT31;53633;49.932;10.884;2023-02-01T12:13:02;6.28;78.08
66722;SHT31;53633;49.932;10.884;2023-02-01T12:15:46;6.31;77.79
66722;SHT31;53633;49.932;10.884;2023-02-01T12:18:32;6.34;77.76
66722;SHT31;53633;49.932;10.884;2023-02-01T12:21:17;6.33;77.44
66722;SHT31;53633;49.932;10.884;2023-02-01T12:24:00;6.38;77.22
66722;SHT31;53633;49.932;10.884;2023-02-01T12:26:43;6.40;77.05
66722;SHT31;53633;49.932;10.884;2023-02-01T12:29:21;6.34;77.12
66722;SHT31;53633;49.932;10.884;2023-02-01T12:32:04;6.33;77.05
66722;SHT31;53633;49.932;10.884;2023-02-01T12:34:45;6.27;76.88
66722;SHT31;53633;49.932;10.884;2023-02-01T12:37:23;6.24;77.08
66722;SHT31;53633;49.932;10.884;2023-02-01T12:39:58;6.34;76.35
66722;SHT31;53633;49.932;10.884;2023-02-01T12:42:31;6.27;75.92
66722;SHT31;53633;49.932;10.884;2023-02-01T12:45:04;6.33;76.25
66722;SHT31;53633;49.932;10.884;2023-02-01T12:47:40;6.33;76.40
66722;SHT31;53633;49.932;10.884;2023-02-01T12:50:14;6.34;76.57
66722;SHT31;53633;49.932;10.884;2023-02-01T12:52:47;6.37;76.64
66722;SHT31;53633;49.932;10.884;2023-02-01T12:55:19;6.31;75.86
66722;SHT31;53633;49.932;10.884;2023-02-01T12:57:50;6.25;75.61
66722;SHT31;53633;49.932;10.884;2023-02-01T13:00:23;6.28;75.78
66722;SHT31;53633;49.932;10.884;2023-02-01T13:02:57;6.27;75.72
66722;SHT31;53633;49.932;10.884;2023-02-01T13:05:29;6.31;75.14
66722;SHT31;53633;49.932;10.884;2023-02-01T13:08:00;6.37;75.02
66722;SHT31;53633;49.932;10.884;2023-02-01T13:10:33;6.35;75.33
66722;SHT31;53633;49.932;10.884;2023-02-01T13:13:05;6.30;74.80
66722;SHT31;53633;49.932;10.884;2023-02-01T13:15:40;6.24;74.60
66722;SHT31;53633;49.932;10.884;2023-02-01T13:18:14;6.23;74.50
66722;SHT31;53633;49.932;10.884;2023-02-01T13:20:47;6.24;74.75
66722;SHT31;53633;49.932;10.884;2023-02-01T13:23:23;6.21;74.66
66722;SHT31;53633;49.932;10.884;2023-02-01T13:25:53;6.23;74.78
66722;SHT31;53633;49.932;10.884;2023-02-01T13:28:25;6.17;74.91
66722;SHT31;53633;49.932;10.884;2023-02-01T13:31:10;6.25;74.80
66722;SHT31;53633;49.932;10.884;2023-02-01T13:33:54;6.17;74.47
66722;SHT31;53633;49.932;10.884;2023-02-01T13:36:34;6.25;74.18
66722;SHT31;53633;49.932;10.884;2023-02-01T13:42:17;6.34;74.48
66722;SHT31;53633;49.932;10.884;2023-02-01T13:44:47;6.37;74.17
66722;SHT31;53633;49.932;10.884;2023-02-01T13:47:27;6.41;73.98
66722;SHT31;53633;49.932;10.884;2023-02-01T13:49:58;6.42;73.86
66722;SHT31;53633;49.932;10.884;2023-02-01T13:52:29;6.40;73.78
66722;SHT31;53633;49.932;10.884;2023-02-01T13:55:14;6.45;73.52
66722;SHT31;53633;49.932;10.884;2023-02-01T13:57:42;6.51;73.99
66722;SHT31;53633;49.932;10.884;2023-02-01T14:00:23;6.64;73.85
66722;SHT31;53633;49.932;10.884;2023-02-01T14:09:15;6.49;73.27
66722;SHT31;53633;49.932;10.884;2023-02-01T14:11:44;6.49;73.32
66722;SHT31;53633;49.932;10.884;2023-02-01T14:14:48;6.48;73.24
66722;SHT31;53633;49.932;10.884;2023-02-01T14:17:39;6.46;73.54
66722;SHT31;53633;49.932;10.884;2023-02-01T14:23:15;6.38;73.48
66722;SHT31;53633;49.932;10.884;2023-02-01T14:25:44;6.35;73.79
66722;SHT31;53633;49.932;10.884;2023-02-01T14:28:19;6.33;74.03
66722;SHT31;53633;49.932;10.884;2023-02-01T14:30:49;6.35;74.10
66722;SHT31;53633;49.932;10.884;2023-02-01T14:33:22;6.42;74.00
66722;SHT31;53633;49.932;10.884;2023-02-01T14:36:10;6.41;74.02
66722;SHT31;53633;49.932;10.884;2023-02-01T14:38:38;6.40;73.73
66722;SHT31;53633;49.932;10.884;2023-02-01T14:41:24;6.31;74.31
66722;SHT31;53633;49.932;10.884;2023-02-01T14:44:14;6.28;74.16
66722;SHT31;53633;49.932;10.884;2023-02-01T14:47:07;6.23;74.09
66722;SHT31;53633;49.932;10.884;2023-02-01T14:49:38;6.21;74.19
66722;SHT31;53633;49.932;10.884;2023-02-01T14:52:14;6.17;74.58
66722;SHT31;53633;49.932;10.884;2023-02-01T14:54:42;6.17;74.47
66722;SHT31;53633;49.932;10.884;2023-02-01T14:57:15;6.18;74.60
66722;SHT31;53633;49.932;10.884;2023-02-01T14:59:44;6.17;74.78
66722;SHT31;53633;49.932;10.884;2023-02-01T15:02:20;6.20;74.51
66722;SHT31;53633;49.932;10.884;2023-02-01T15:04:53;6.18;74.76
66722;SHT31;53633;49.932;10.884;2023-02-01T15:07:21;6.21;74.96
66722;SHT31;53633;49.932;10.884;2023-02-01T15:09:48;6.24;74.26
66722;SHT31;53633;49.932;10.884;2023-02-01T15:12:19;6.17;74.61
66722;SHT31;53633;49.932;10.884;2023-02-01T15:15:11;6.18;74.11
66722;SHT31;53633;49.932;10.884;2023-02-01T15:17:38;6.18;74.24
66722;SHT31;53633;49.932;10.884;2023-02-01T15:20:13;6.11;74.52
66722;SHT31;53633;49.932;10.884;2023-02-01T15:22:52;6.09;74.49
66722;SHT31;53633;49.932;10.884;2023-02-01T15:25:20;6.10;74.50
66722;SHT31;53633;49.932;10.884;2023-02-01T15:27:49;6.06;74.59
66722;SHT31;53633;49.932;10.884;2023-02-01T15:30:17;6.10;74.20
66722;SHT31;53633;49.932;10.884;2023-02-01T15:32:45;6.13;74.21
66722;SHT31;53633;49.932;10.884;2023-02-01T15:35:40;6.06;74.15
66722;SHT31;53633;49.932;10.884;2023-02-01T15:38:33;6.09;74.58
66722;SHT31;53633;49.932;10.884;2023-02-01T15:41:02;6.03;74.89
66722;SHT31;53633;49.932;10.884;2023-02-01T15:43:33;6.03;74.78
66722;SHT31;53633;49.932;10.884;2023-02-01T15:46:01;6.02;74.61
66722;SHT31;53633;49.932;10.884;2023-02-01T15:48:34;6.03;74.21
66722;SHT31;53633;49.932;10.884;2023-02-01T15:51:01;6.04;74.58
66722;SHT31;53633;49.932;10.884;2023-02-01T15:53:29;6.03;74.53
66722;SHT31;53633;49.932;10.884;2023-02-01T15:55:58;6.03;74.66
66722;SHT31;53633;49.932;10.884;2023-02-01T15:58:26;5.99;74.53
66722;SHT31;53633;49.932;10.884;2023-02-01T16:00:56;6.03;74.60
66722;SHT31;53633;49.932;10.884;2023-02-01T16:03:33;6.04;74.67
66722;SHT31;53633;49.932;10.884;2023-02-01T16:06:01;6.02;74.74
66722;SHT31;53633;49.932;10.884;2023-02-01T16:08:29;5.99;74.75
66722;SHT31;53633;49.932;10.884;2023-02-01T16:11:01;5.95;75.02